createdAt,value
2023-05-16T00:00:53.558Z,98562.73
2023-05-16T00:03:24.295Z,98564.86
2023-05-16T00:05:56.126Z,98564.16
2023-05-16T00:08:26.803Z,98566.06
2023-05-16T00:10:57.624Z,98567.52
2023-05-16T00:13:28.371Z,98568.15
2023-05-16T00:15:59.501Z,98570.77
2023-05-16T00:18:30.493Z,98569.08
2023-05-16T00:21:01.815Z,98568.05
2023-05-16T00:23:32.514Z,98565.52
2023-05-16T00:26:03.816Z,98563.36
2023-05-16T00:28:34.500Z,98565.27
2023-05-16T00:31:05.778Z,98564.08
2023-05-16T00:33:36.964Z,98566.56
2023-05-16T00:36:08.758Z,98570.11
2023-05-16T00:38:39.455Z,98574.13
2023-05-16T00:41:10.269Z,98570.70
2023-05-16T00:43:41.110Z,98571.00
2023-05-16T00:46:11.776Z,98574.95
2023-05-16T00:48:42.451Z,98573.16
2023-05-16T00:51:13.618Z,98572.66
2023-05-16T00:53:44.581Z,98574.09
2023-05-16T00:56:15.316Z,98574.79
2023-05-16T00:58:46.361Z,98569.20
2023-05-16T01:01:17.345Z,98563.08
2023-05-16T01:03:48.928Z,98567.08
2023-05-16T01:06:19.910Z,98570.54
2023-05-16T01:08:51.062Z,98572.39
2023-05-16T01:11:28.247Z,98576.82
2023-05-16T01:14:13.239Z,98576.41
2023-05-16T01:16:48.952Z,98581.05
2023-05-16T01:19:34.494Z,98580.66
2023-05-16T01:22:16.432Z,98589.85
2023-05-16T01:25:04.042Z,98595.25
2023-05-16T01:27:36.794Z,98594.02
2023-05-16T01:30:17.543Z,98598.90
2023-05-16T01:32:48.468Z,98600.36
2023-05-16T01:35:20.336Z,98601.17
2023-05-16T01:37:57.737Z,98597.95
2023-05-16T01:40:37.860Z,98595.80
2023-05-16T01:43:14.327Z,98594.41
2023-05-16T01:45:52.080Z,98592.65
2023-05-16T01:48:28.417Z,98594.21
2023-05-16T01:51:01.462Z,98595.75
2023-05-16T01:53:38.178Z,98588.85
2023-05-16T01:56:16.773Z,98590.58
2023-05-16T01:58:49.738Z,98592.89
2023-05-16T02:01:20.516Z,98586.89
2023-05-16T02:03:51.772Z,98587.80
2023-05-16T02:06:23.510Z,98586.80
2023-05-16T02:08:54.537Z,98585.96
2023-05-16T02:11:25.160Z,98584.34
2023-05-16T02:13:55.801Z,98590.67
2023-05-16T02:16:26.586Z,98592.76
2023-05-16T02:18:57.303Z,98596.68
2023-05-16T02:21:27.931Z,98595.81
2023-05-16T02:23:58.641Z,98600.80
2023-05-16T02:26:29.298Z,98596.38
2023-05-16T02:28:59.923Z,98599.27
2023-05-16T02:31:32.673Z,98603.52
2023-05-16T02:34:03.915Z,98603.98
2023-05-16T02:36:36.168Z,98605.58
2023-05-16T02:39:07.723Z,98604.02
2023-05-16T02:41:38.525Z,98599.92
2023-05-16T02:44:09.456Z,98600.41
2023-05-16T02:46:40.250Z,98607.09
2023-05-16T02:49:11.057Z,98606.65
2023-05-16T02:51:41.769Z,98608.39
2023-05-16T02:54:12.429Z,98610.64
2023-05-16T02:56:43.152Z,98613.59
2023-05-16T02:59:14.114Z,98617.84
2023-05-16T03:01:44.748Z,98620.69
2023-05-16T03:04:15.734Z,98620.81
2023-05-16T03:06:46.865Z,98623.04
2023-05-16T03:09:17.792Z,98626.95
2023-05-16T03:11:49.954Z,98626.59
2023-05-16T03:14:20.800Z,98631.89
2023-05-16T03:16:51.852Z,98634.58
2023-05-16T03:19:22.593Z,98642.34
2023-05-16T03:21:53.392Z,98642.14
2023-05-16T03:24:24.100Z,98637.50
2023-05-16T03:26:54.900Z,98639.48
2023-05-16T03:29:26.262Z,98637.23
2023-05-16T03:31:57.559Z,98632.95
2023-05-16T03:34:28.295Z,98633.52
2023-05-16T03:36:58.890Z,98631.70
2023-05-16T03:39:29.523Z,98628.80
2023-05-16T03:42:00.189Z,98629.71
2023-05-16T03:44:31.730Z,98627.68
2023-05-16T03:47:02.539Z,98628.09
2023-05-16T03:49:33.304Z,98631.04
2023-05-16T03:52:04.221Z,98636.38
2023-05-16T03:54:34.863Z,98646.52
2023-05-16T03:57:06.152Z,98647.75
2023-05-16T03:59:36.891Z,98650.20
2023-05-16T04:02:07.919Z,98647.42
2023-05-16T04:04:38.591Z,98650.37
2023-05-16T04:07:09.139Z,98659.69
2023-05-16T04:09:39.877Z,98667.35
2023-05-16T04:12:11.347Z,98672.82
2023-05-16T04:14:42.031Z,98679.61
2023-05-16T04:17:13.061Z,98675.97
2023-05-16T04:19:43.817Z,98673.61
2023-05-16T04:22:14.626Z,98673.48
2023-05-16T04:24:45.492Z,98670.07
2023-05-16T04:27:16.196Z,98672.32
2023-05-16T04:29:47.039Z,98671.30
2023-05-16T04:32:18.694Z,98668.15
2023-05-16T04:34:53.458Z,98672.30
2023-05-16T04:37:24.367Z,98682.15
2023-05-16T04:39:55.764Z,98686.83
2023-05-16T04:42:27.002Z,98689.41
2023-05-16T04:44:58.411Z,98687.77
2023-05-16T04:47:29.425Z,98687.17
2023-05-16T04:50:00.897Z,98690.10
2023-05-16T04:52:31.791Z,98688.69
2023-05-16T04:55:02.682Z,98688.36
2023-05-16T04:57:33.561Z,98686.79
2023-05-16T05:00:08.083Z,98688.52
2023-05-16T05:02:39.354Z,98686.83
2023-05-16T05:05:12.034Z,98688.39
2023-05-16T05:07:43.328Z,98687.63
2023-05-16T05:10:14.902Z,98682.89
2023-05-16T05:12:45.611Z,98683.44
2023-05-16T05:15:16.503Z,98686.93
2023-05-16T05:17:47.448Z,98684.08
2023-05-16T05:20:18.806Z,98681.98
2023-05-16T05:22:49.749Z,98683.68
2023-05-16T05:25:21.183Z,98682.89
2023-05-16T05:27:52.254Z,98673.70
2023-05-16T05:30:23.484Z,98669.13
2023-05-16T05:32:55.000Z,98671.27
2023-05-16T05:35:26.344Z,98678.70
2023-05-16T05:37:57.433Z,98683.84
2023-05-16T05:40:28.345Z,98681.09
2023-05-16T05:42:59.122Z,98677.67
2023-05-16T05:45:30.321Z,98685.06
2023-05-16T05:48:01.375Z,98685.73
2023-05-16T05:50:32.396Z,98688.58
2023-05-16T05:53:03.391Z,98688.20
2023-05-16T05:55:34.257Z,98692.16
2023-05-16T05:58:07.040Z,98697.36
2023-05-16T06:00:38.692Z,98699.64
2023-05-16T06:03:09.573Z,98702.33
2023-05-16T06:05:40.369Z,98703.73
2023-05-16T06:08:11.326Z,98708.62
2023-05-16T06:10:42.564Z,98710.18
2023-05-16T06:13:13.397Z,98716.91
2023-05-16T06:15:44.247Z,98720.75
2023-05-16T06:18:15.094Z,98724.63
2023-05-16T06:20:45.900Z,98722.52
2023-05-16T06:23:17.447Z,98719.90
2023-05-16T06:25:49.427Z,98726.33
2023-05-16T06:28:20.182Z,98730.36
2023-05-16T06:30:52.054Z,98730.73
2023-05-16T06:33:23.314Z,98729.43
2023-05-16T06:35:54.655Z,98725.23
2023-05-16T06:38:25.897Z,98714.31
2023-05-16T06:40:56.737Z,98707.35
2023-05-16T06:43:27.684Z,98703.48
2023-05-16T06:45:58.448Z,98704.00
2023-05-16T06:48:29.626Z,98700.66
2023-05-16T06:51:00.733Z,98699.11
2023-05-16T06:53:31.551Z,98695.83
2023-05-16T06:56:02.802Z,98699.84
2023-05-16T06:58:33.871Z,98698.94
2023-05-16T07:01:05.019Z,98706.92
2023-05-16T07:03:35.987Z,98707.70
2023-05-16T07:06:07.133Z,98704.80
2023-05-16T07:08:38.241Z,98700.39
2023-05-16T07:11:11.638Z,98696.31
2023-05-16T07:13:42.557Z,98695.42
2023-05-16T07:16:13.423Z,98698.02
2023-05-16T07:18:44.442Z,98700.86
2023-05-16T07:21:15.444Z,98702.73
2023-05-16T07:23:46.338Z,98698.60
2023-05-16T07:26:17.790Z,98692.79
2023-05-16T07:28:48.539Z,98697.13
2023-05-16T07:31:19.712Z,98702.97
2023-05-16T07:33:50.735Z,98706.86
2023-05-16T07:36:21.439Z,98709.20
2023-05-16T07:38:52.343Z,98716.46
2023-05-16T07:41:23.089Z,98722.63
2023-05-16T07:43:53.883Z,98719.52
2023-05-16T07:46:24.769Z,98724.25
2023-05-16T07:48:55.573Z,98731.64
2023-05-16T07:51:26.435Z,98736.48
2023-05-16T07:53:57.258Z,98733.90
2023-05-16T07:56:28.063Z,98734.92
2023-05-16T07:58:58.957Z,98730.67
2023-05-16T08:01:30.083Z,98733.34
2023-05-16T08:04:01.149Z,98730.38
2023-05-16T08:06:32.130Z,98725.78
2023-05-16T08:09:03.447Z,98720.38
2023-05-16T08:11:34.495Z,98724.56
2023-05-16T08:14:06.292Z,98732.08
2023-05-16T08:16:37.473Z,98741.24
2023-05-16T08:19:08.575Z,98741.88
2023-05-16T08:21:39.747Z,98744.46
2023-05-16T08:24:11.412Z,98744.47
2023-05-16T08:26:42.613Z,98740.42
2023-05-16T08:29:13.564Z,98733.70
2023-05-16T08:31:44.413Z,98728.60
2023-05-16T08:34:15.334Z,98722.34
2023-05-16T08:36:46.723Z,98724.40
2023-05-16T08:39:17.697Z,98729.47
2023-05-16T08:41:48.566Z,98734.80
2023-05-16T08:44:22.097Z,98736.14
2023-05-16T08:46:55.311Z,98742.96
2023-05-16T08:49:28.608Z,98747.70
2023-05-16T08:52:01.919Z,98748.83
2023-05-16T08:54:33.548Z,98753.39
2023-05-16T08:57:05.263Z,98754.23
2023-05-16T08:59:36.545Z,98759.60
2023-05-16T09:02:08.244Z,98757.95
2023-05-16T09:04:42.502Z,98755.23
2023-05-16T09:07:13.646Z,98760.30
2023-05-16T09:09:44.819Z,98762.39
2023-05-16T09:12:15.822Z,98764.08
2023-05-16T09:14:47.564Z,98770.05
2023-05-16T09:17:23.088Z,98772.37
2023-05-16T09:20:09.755Z,98771.23
2023-05-16T09:22:41.292Z,98769.55
2023-05-16T09:25:29.368Z,98775.84
2023-05-16T09:28:03.982Z,98780.56
2023-05-16T09:30:37.337Z,98781.04
2023-05-16T09:33:09.906Z,98778.15
2023-05-16T09:35:45.360Z,98780.34
2023-05-16T09:38:20.528Z,98778.75
2023-05-16T09:40:51.913Z,98778.15
2023-05-16T09:43:26.436Z,98772.10
2023-05-16T09:46:00.517Z,98770.97
2023-05-16T09:48:31.404Z,98770.33
2023-05-16T09:51:05.472Z,98770.54
2023-05-16T09:53:36.716Z,98768.23
2023-05-16T09:56:09.483Z,98774.13
2023-05-16T09:58:42.273Z,98771.20
2023-05-16T10:01:13.754Z,98770.54
2023-05-16T10:03:45.245Z,98770.70
2023-05-16T10:06:17.387Z,98769.55
2023-05-16T10:08:48.924Z,98766.96
2023-05-16T10:11:22.115Z,98764.26
2023-05-16T10:13:54.601Z,98757.52
2023-05-16T10:16:27.414Z,98751.16
2023-05-16T10:18:59.432Z,98749.59
2023-05-16T10:21:34.221Z,98746.98
2023-05-16T10:24:08.820Z,98743.23
2023-05-16T10:26:39.715Z,98737.16
2023-05-16T10:29:11.580Z,98740.77
2023-05-16T10:31:43.006Z,98736.00
2023-05-16T10:34:15.032Z,98736.01
2023-05-16T10:36:49.725Z,98730.87
2023-05-16T10:39:21.589Z,98724.90
2023-05-16T10:41:52.784Z,98718.97
2023-05-16T10:44:23.825Z,98711.69
2023-05-16T10:46:54.832Z,98705.42
2023-05-16T10:49:27.840Z,98701.67
2023-05-16T10:52:10.724Z,98701.90
2023-05-16T10:54:43.597Z,98695.38
2023-05-16T10:57:21.004Z,98686.69
2023-05-16T10:59:54.374Z,98680.48
2023-05-16T11:02:33.209Z,98675.39
2023-05-16T11:05:04.843Z,98681.09
2023-05-16T11:07:37.478Z,98676.22
2023-05-16T11:10:16.151Z,98676.48
2023-05-16T11:12:53.055Z,98673.86
2023-05-16T11:15:30.322Z,98675.09
2023-05-16T11:18:12.036Z,98674.75
2023-05-16T11:20:43.634Z,98673.52
2023-05-16T11:23:26.452Z,98679.66
2023-05-16T11:26:00.828Z,98680.75
2023-05-16T11:28:31.740Z,98684.13
2023-05-16T11:31:05.489Z,98691.02
2023-05-16T11:33:35.779Z,98688.65
2023-05-16T11:36:16.229Z,98691.93
2023-05-16T11:38:47.940Z,98698.20
2023-05-16T11:41:21.282Z,98691.90
2023-05-16T11:43:52.408Z,98683.80
2023-05-16T11:46:24.074Z,98676.31
2023-05-16T11:48:55.092Z,98671.21
2023-05-16T11:51:26.170Z,98676.65
2023-05-16T11:53:57.862Z,98682.62
2023-05-16T11:56:29.029Z,98691.46
2023-05-16T11:59:01.045Z,98698.32
2023-05-16T12:01:37.942Z,98702.94
2023-05-16T12:04:13.909Z,98711.58
2023-05-16T12:06:45.826Z,98714.00
2023-05-16T12:09:18.550Z,98713.43
2023-05-16T12:11:49.642Z,98714.30
2023-05-16T12:14:21.687Z,98708.91
2023-05-16T12:16:55.628Z,98710.69
2023-05-16T12:19:27.509Z,98713.00
2023-05-16T12:21:59.044Z,98710.48
2023-05-16T12:24:34.186Z,98713.17
2023-05-16T12:27:05.479Z,98715.77
2023-05-16T12:29:36.673Z,98716.67
2023-05-16T12:32:10.861Z,98712.30
2023-05-16T12:34:50.240Z,98712.46
2023-05-16T12:37:22.517Z,98705.67
2023-05-16T12:39:53.478Z,98698.59
2023-05-16T12:42:24.227Z,98702.84
2023-05-16T12:44:58.332Z,98697.04
2023-05-16T12:47:39.353Z,98701.10
2023-05-16T12:50:14.850Z,98697.92
2023-05-16T12:52:53.272Z,98701.23
2023-05-16T12:55:25.163Z,98702.33
2023-05-16T12:57:58.338Z,98700.37
2023-05-16T13:00:29.715Z,98706.61
2023-05-16T13:03:01.259Z,98704.62
2023-05-16T13:05:32.182Z,98699.08
2023-05-16T13:08:03.457Z,98694.64
2023-05-16T13:10:34.301Z,98691.70
2023-05-16T13:13:05.180Z,98688.98
2023-05-16T13:15:36.094Z,98690.73
2023-05-16T13:18:07.027Z,98696.48
2023-05-16T13:20:39.053Z,98696.48
2023-05-16T13:23:09.834Z,98696.06
2023-05-16T13:25:41.143Z,98696.00
2023-05-16T13:28:12.284Z,98693.89
2023-05-16T13:30:43.326Z,98693.09
2023-05-16T13:33:14.396Z,98692.99
2023-05-16T13:35:46.340Z,98692.30
2023-05-16T13:38:18.956Z,98686.50
2023-05-16T13:40:50.552Z,98685.96
2023-05-16T13:43:21.731Z,98692.75
2023-05-16T13:45:53.412Z,98689.73
2023-05-16T13:48:25.226Z,98689.58
2023-05-16T13:50:56.296Z,98691.38
2023-05-16T13:53:27.454Z,98692.14
2023-05-16T13:55:58.482Z,98693.39
2023-05-16T13:58:29.772Z,98693.63
2023-05-16T14:01:00.958Z,98695.02
2023-05-16T14:03:32.517Z,98698.63
2023-05-16T14:06:04.733Z,98697.69
2023-05-16T14:08:35.884Z,98699.45
2023-05-16T14:11:07.645Z,98696.40
2023-05-16T14:13:40.547Z,98701.92
2023-05-16T14:16:13.458Z,98702.98
2023-05-16T14:18:45.022Z,98703.86
2023-05-16T14:21:16.116Z,98710.14
2023-05-16T14:23:47.595Z,98717.20
2023-05-16T14:26:22.728Z,98721.51
2023-05-16T14:28:54.014Z,98726.16
2023-05-16T14:31:25.391Z,98727.71
2023-05-16T14:33:59.555Z,98729.73
2023-05-16T14:36:33.667Z,98730.48
2023-05-16T14:39:05.044Z,98734.99
2023-05-16T14:41:38.487Z,98736.73
2023-05-16T14:44:10.457Z,98743.08
2023-05-16T14:46:42.080Z,98743.85
2023-05-16T14:49:13.677Z,98751.77
2023-05-16T14:51:49.394Z,98751.41
2023-05-16T14:54:21.443Z,98750.10
2023-05-16T14:56:52.664Z,98746.02
2023-05-16T14:59:23.584Z,98742.20
2023-05-16T15:01:55.065Z,98738.92
2023-05-16T15:04:26.330Z,98741.91
2023-05-16T15:06:57.481Z,98739.22
2023-05-16T15:09:28.905Z,98746.80
2023-05-16T15:12:00.006Z,98752.17
2023-05-16T15:14:31.022Z,98759.02
2023-05-16T15:17:02.002Z,98757.55
2023-05-16T15:19:32.990Z,98756.09
2023-05-16T15:22:08.027Z,98760.05
2023-05-16T15:24:39.183Z,98762.60
2023-05-16T15:27:10.552Z,98765.95
2023-05-16T15:29:42.381Z,98762.44
2023-05-16T15:32:14.685Z,98765.98
2023-05-16T15:34:46.341Z,98769.63
2023-05-16T15:37:17.861Z,98768.66
2023-05-16T15:39:51.916Z,98769.59
2023-05-16T15:42:23.465Z,98776.30
2023-05-16T15:44:54.890Z,98777.83
2023-05-16T15:47:28.462Z,98778.18
2023-05-16T15:49:59.714Z,98781.09
2023-05-16T15:52:30.967Z,98777.91
2023-05-16T15:55:02.008Z,98781.03
2023-05-16T15:57:33.230Z,98774.89
2023-05-16T16:00:04.551Z,98775.92
2023-05-16T16:02:35.652Z,98776.46
2023-05-16T16:05:07.919Z,98778.45
2023-05-16T16:07:38.966Z,98784.36
2023-05-16T16:10:12.481Z,98786.91
2023-05-16T16:12:44.494Z,98792.26
2023-05-16T16:15:15.693Z,98796.20
2023-05-16T16:17:47.205Z,98795.57
2023-05-16T16:20:18.535Z,98799.34
2023-05-16T16:22:49.978Z,98798.86
2023-05-16T16:25:21.072Z,98804.30
2023-05-16T16:27:51.995Z,98809.24
2023-05-16T16:30:23.312Z,98806.69
2023-05-16T16:32:55.043Z,98809.55
2023-05-16T16:35:26.581Z,98806.18
2023-05-16T16:38:06.130Z,98809.46
2023-05-16T16:40:36.303Z,98807.80
2023-05-16T16:43:07.963Z,98805.14
2023-05-16T16:45:39.798Z,98806.38
2023-05-16T16:48:11.854Z,98800.55
2023-05-16T16:50:43.453Z,98803.36
2023-05-16T16:53:15.361Z,98805.02
2023-05-16T16:55:47.571Z,98807.88
2023-05-16T16:58:18.747Z,98809.30
2023-05-16T17:00:51.612Z,98814.05
2023-05-16T17:03:23.637Z,98820.08
2023-05-16T17:05:54.818Z,98819.78
2023-05-16T17:08:26.287Z,98815.86
2023-05-16T17:11:00.026Z,98821.84
2023-05-16T17:13:33.810Z,98820.49
2023-05-16T17:16:05.384Z,98824.88
2023-05-16T17:18:38.183Z,98826.17
2023-05-16T17:21:15.366Z,98829.66
2023-05-16T17:23:46.551Z,98828.86
2023-05-16T17:26:18.180Z,98831.72
2023-05-16T17:28:49.892Z,98829.85
2023-05-16T17:31:21.223Z,98836.85
2023-05-16T17:33:53.428Z,98839.90
2023-05-16T17:36:25.096Z,98841.54
2023-05-16T17:38:56.641Z,98844.56
2023-05-16T17:41:27.798Z,98846.85
2023-05-16T17:43:59.027Z,98846.80
2023-05-16T17:46:30.159Z,98849.13
2023-05-16T17:49:01.493Z,98850.45
2023-05-16T17:51:46.461Z,98849.19
2023-05-16T17:54:18.651Z,98854.23
2023-05-16T17:56:51.138Z,98857.52
2023-05-16T17:59:22.219Z,98860.19
2023-05-16T18:01:53.427Z,98866.23
2023-05-16T18:04:25.394Z,98870.58
2023-05-16T18:06:56.725Z,98873.63
2023-05-16T18:09:28.927Z,98872.94
2023-05-16T18:12:00.531Z,98873.30
2023-05-16T18:14:31.723Z,98872.52
2023-05-16T18:17:02.956Z,98873.84
2023-05-16T18:19:34.309Z,98877.33
2023-05-16T18:22:08.913Z,98881.21
2023-05-16T18:24:41.016Z,98883.00
2023-05-16T18:27:12.110Z,98884.00
2023-05-16T18:29:43.584Z,98889.04
2023-05-16T18:32:14.927Z,98893.55
2023-05-16T18:34:47.059Z,98900.10
2023-05-16T18:37:18.224Z,98905.93
2023-05-16T18:39:49.818Z,98907.25
2023-05-16T18:42:21.135Z,98907.45
2023-05-16T18:44:52.177Z,98911.38
2023-05-16T18:47:23.404Z,98911.16
2023-05-16T18:49:54.857Z,98911.33
2023-05-16T18:52:26.057Z,98908.61
2023-05-16T18:54:57.570Z,98911.33
2023-05-16T18:57:28.814Z,98915.82
2023-05-16T19:00:00.161Z,98918.30
2023-05-16T19:02:41.606Z,98918.80
2023-05-16T19:05:14.507Z,98922.23
2023-05-16T19:07:46.040Z,98927.73
2023-05-16T19:10:17.508Z,98928.70
2023-05-16T19:12:49.322Z,98930.52
2023-05-16T19:15:20.445Z,98929.48
2023-05-16T19:17:51.781Z,98941.21
2023-05-16T19:20:24.278Z,98946.05
2023-05-16T19:22:56.075Z,98951.75
2023-05-16T19:25:28.135Z,98949.45
2023-05-16T19:27:59.473Z,98943.91
2023-05-16T19:30:30.809Z,98940.05
2023-05-16T19:33:01.898Z,98945.52
2023-05-16T19:35:33.256Z,98951.55
2023-05-16T19:38:04.208Z,98946.77
2023-05-16T19:40:35.812Z,98942.67
2023-05-16T19:43:07.017Z,98940.25
2023-05-16T19:45:38.760Z,98937.33
2023-05-16T19:48:10.690Z,98936.64
2023-05-16T19:50:41.731Z,98937.70
2023-05-16T19:53:13.177Z,98938.27
2023-05-16T19:55:44.164Z,98937.83
2023-05-16T19:58:15.021Z,98939.88
2023-05-16T20:00:47.186Z,98947.60
2023-05-16T20:03:18.446Z,98948.78
2023-05-16T20:05:49.995Z,98949.68
2023-05-16T20:08:21.678Z,98946.00
2023-05-16T20:10:54.232Z,98946.70
2023-05-16T20:13:26.208Z,98944.01
2023-05-16T20:15:58.077Z,98944.27
2023-05-16T20:18:32.146Z,98945.94
2023-05-16T20:21:03.330Z,98947.59
2023-05-16T20:23:35.224Z,98950.23
2023-05-16T20:26:06.650Z,98946.19
2023-05-16T20:28:37.557Z,98942.54
2023-05-16T20:31:08.526Z,98940.64
2023-05-16T20:33:39.527Z,98943.63
2023-05-16T20:36:10.617Z,98946.27
2023-05-16T20:38:41.521Z,98947.40
2023-05-16T20:41:12.625Z,98946.94
2023-05-16T20:43:43.716Z,98953.68
2023-05-16T20:46:14.777Z,98956.05
2023-05-16T20:48:45.770Z,98959.74
2023-05-16T20:51:17.123Z,98957.98
2023-05-16T20:53:48.411Z,98958.48
2023-05-16T20:56:19.445Z,98963.73
2023-05-16T20:58:50.263Z,98962.52
2023-05-16T21:01:22.442Z,98964.35
2023-05-16T21:03:53.718Z,98967.29
2023-05-16T21:06:24.721Z,98971.33
2023-05-16T21:08:56.113Z,98974.90
2023-05-16T21:11:28.899Z,98975.55
2023-05-16T21:13:59.956Z,98976.36
2023-05-16T21:16:31.353Z,98977.83
2023-05-16T21:19:04.378Z,98972.91
2023-05-16T21:21:35.850Z,98976.05
2023-05-16T21:24:07.623Z,98979.40
2023-05-16T21:26:38.617Z,98978.36
2023-05-16T21:29:09.374Z,98980.24
2023-05-16T21:31:40.543Z,98979.25
2023-05-16T21:34:11.737Z,98983.52
2023-05-16T21:36:45.149Z,98985.50
2023-05-16T21:39:16.214Z,98984.42
2023-05-16T21:41:47.031Z,98983.32
2023-05-16T21:44:18.624Z,98979.97
2023-05-16T21:46:49.603Z,98981.73
2023-05-16T21:49:20.795Z,98977.70
2023-05-16T21:51:51.764Z,98979.75
2023-05-16T21:54:22.560Z,98976.36
2023-05-16T21:56:53.378Z,98975.41
2023-05-16T21:59:24.428Z,98980.05
2023-05-16T22:01:57.411Z,98985.66
2023-05-16T22:04:28.693Z,98989.59
2023-05-16T22:06:59.600Z,98989.19
2023-05-16T22:09:30.842Z,98991.36
2023-05-16T22:12:01.788Z,98990.77
2023-05-16T22:14:32.742Z,98992.72
2023-05-16T22:17:03.781Z,98995.84
2023-05-16T22:19:34.873Z,98994.29
2023-05-16T22:22:06.711Z,98989.90
2023-05-16T22:24:37.822Z,98989.67
2023-05-16T22:27:09.095Z,98986.45
2023-05-16T22:29:39.942Z,98980.78
2023-05-16T22:32:11.812Z,98984.67
2023-05-16T22:34:42.836Z,98991.34
2023-05-16T22:37:13.583Z,98999.49
2023-05-16T22:39:44.501Z,99001.05
2023-05-16T22:42:15.352Z,99000.61
2023-05-16T22:44:46.301Z,99003.35
2023-05-16T22:47:17.027Z,98999.84
2023-05-16T22:49:47.759Z,99001.40
2023-05-16T22:52:18.611Z,99004.25
2023-05-16T22:54:49.431Z,99003.66
2023-05-16T22:57:20.182Z,99005.28
2023-05-16T22:59:50.865Z,99007.50
2023-05-16T23:02:21.770Z,99005.95
2023-05-16T23:04:52.800Z,99005.45
2023-05-16T23:07:23.825Z,99004.97
2023-05-16T23:09:54.673Z,99006.49
2023-05-16T23:12:26.172Z,99011.34
2023-05-16T23:14:58.165Z,99009.48
2023-05-16T23:17:28.883Z,99009.01
2023-05-16T23:19:59.679Z,99004.95
2023-05-16T23:22:30.841Z,99003.39
2023-05-16T23:25:01.700Z,99003.19
2023-05-16T23:27:33.126Z,99008.95
2023-05-16T23:30:04.166Z,99014.29
2023-05-16T23:32:34.878Z,99016.16
2023-05-16T23:35:06.487Z,99017.09
2023-05-16T23:37:37.405Z,99018.72
2023-05-16T23:40:10.464Z,99027.73
2023-05-16T23:42:41.900Z,99027.60
2023-05-16T23:45:13.749Z,99026.44
2023-05-16T23:47:44.905Z,99026.94
2023-05-16T23:50:17.394Z,99029.22
2023-05-16T23:52:48.212Z,99024.09
2023-05-16T23:55:20.357Z,99030.50
2023-05-16T23:57:51.105Z,99030.52
